sensor_id;sensor_type;location;lat;lon;timestamp;temperature;humidity
39045;DHT22;52192;52.002;5.956;2022-12-16T00:01:20;-0.20;70.80
39045;DHT22;52192;52.002;5.956;2022-12-16T00:03:54;-0.20;70.70
39045;DHT22;52192;52.002;5.956;2022-12-16T00:06:22;-0.20;70.70
39045;DHT22;52192;52.002;5.956;2022-12-16T00:08:48;-0.20;70.80
39045;DHT22;52192;52.002;5.956;2022-12-16T00:11:14;-0.10;70.80
39045;DHT22;52192;52.002;5.956;2022-12-16T00:13:40;-0.10;70.80
39045;DHT22;52192;52.002;5.956;2022-12-16T00:16:08;-0.10;70.70
39045;DHT22;52192;52.002;5.956;2022-12-16T00:18:34;-0.10;70.70
39045;DHT22;52192;52.002;5.956;2022-12-16T00:21:00;-0.10;70.70
39045;DHT22;52192;52.002;5.956;2022-12-16T00:23:27;-0.10;70.90
39045;DHT22;52192;52.002;5.956;2022-12-16T00:25:52;-0.10;70.90
39045;DHT22;52192;52.002;5.956;2022-12-16T00:28:18;0.00;70.90
39045;DHT22;52192;52.002;5.956;2022-12-16T00:30:51;0.00;70.80
39045;DHT22;52192;52.002;5.956;2022-12-16T00:33:19;0.00;70.80
39045;DHT22;52192;52.002;5.956;2022-12-16T00:35:45;0.10;70.90
39045;DHT22;52192;52.002;5.956;2022-12-16T00:38:11;0.10;70.90
39045;DHT22;52192;52.002;5.956;2022-12-16T00:40:37;0.20;70.90
39045;DHT22;52192;52.002;5.956;2022-12-16T00:43:02;0.20;70.80
39045;DHT22;52192;52.002;5.956;2022-12-16T00:45:29;0.20;70.80
39045;DHT22;52192;52.002;5.956;2022-12-16T00:47:54;0.30;70.80
39045;DHT22;52192;52.002;5.956;2022-12-16T00:50:20;0.30;70.80
39045;DHT22;52192;52.002;5.956;2022-12-16T00:52:47;0.40;70.90
39045;DHT22;52192;52.002;5.956;2022-12-16T00:55:14;0.40;71.40
39045;DHT22;52192;52.002;5.956;2022-12-16T00:57:40;0.40;70.80
39045;DHT22;52192;52.002;5.956;2022-12-16T01:00:07;0.40;70.90
39045;DHT22;52192;52.002;5.956;2022-12-16T01:02:41;0.40;70.90
39045;DHT22;52192;52.002;5.956;2022-12-16T01:05:08;0.40;71.70
39045;DHT22;52192;52.002;5.956;2022-12-16T01:07:34;0.50;71.00
39045;DHT22;52192;52.002;5.956;2022-12-16T01:10:00;0.50;71.00
39045;DHT22;52192;52.002;5.956;2022-12-16T01:12:26;0.50;70.90
39045;DHT22;52192;52.002;5.956;2022-12-16T01:14:52;0.60;71.10
39045;DHT22;52192;52.002;5.956;2022-12-16T01:17:17;0.60;71.10
39045;DHT22;52192;52.002;5.956;2022-12-16T01:19:43;0.60;71.20
39045;DHT22;52192;52.002;5.956;2022-12-16T01:22:10;0.60;71.20
39045;DHT22;52192;52.002;5.956;2022-12-16T01:24:35;0.70;71.30
39045;DHT22;52192;52.002;5.956;2022-12-16T01:27:01;0.70;71.20
39045;DHT22;52192;52.002;5.956;2022-12-16T01:29:27;0.70;71.30
39045;DHT22;52192;52.002;5.956;2022-12-16T01:31:52;0.70;71.30
39045;DHT22;52192;52.002;5.956;2022-12-16T01:34:18;0.70;71.30
39045;DHT22;52192;52.002;5.956;2022-12-16T01:36:43;0.80;71.40
39045;DHT22;52192;52.002;5.956;2022-12-16T01:39:10;0.80;71.40
39045;DHT22;52192;52.002;5.956;2022-12-16T01:41:36;0.80;71.30
39045;DHT22;52192;52.002;5.956;2022-12-16T01:44:21;0.70;71.40
39045;DHT22;52192;52.002;5.956;2022-12-16T01:46:55;0.80;71.50
39045;DHT22;52192;52.002;5.956;2022-12-16T01:49:35;0.80;71.50
39045;DHT22;52192;52.002;5.956;2022-12-16T01:52:04;0.80;71.50
39045;DHT22;52192;52.002;5.956;2022-12-16T01:54:49;0.80;71.50
39045;DHT22;52192;52.002;5.956;2022-12-16T01:57:23;0.90;71.50
39045;DHT22;52192;52.002;5.956;2022-12-16T01:59:51;0.90;71.60
39045;DHT22;52192;52.002;5.956;2022-12-16T02:02:18;0.90;71.70
39045;DHT22;52192;52.002;5.956;2022-12-16T02:04:45;0.90;71.70
39045;DHT22;52192;52.002;5.956;2022-12-16T02:07:29;0.90;71.70
39045;DHT22;52192;52.002;5.956;2022-12-16T02:09:55;1.00;71.80
39045;DHT22;52192;52.002;5.956;2022-12-16T02:12:45;1.00;71.80
39045;DHT22;52192;52.002;5.956;2022-12-16T02:31:27;1.00;72.00
39045;DHT22;52192;52.002;5.956;2022-12-16T02:34:42;1.10;72.10
39045;DHT22;52192;52.002;5.956;2022-12-16T02:39:55;1.10;72.10
39045;DHT22;52192;52.002;5.956;2022-12-16T02:42:40;1.10;72.20
39045;DHT22;52192;52.002;5.956;2022-12-16T02:45:17;1.10;72.20
39045;DHT22;52192;52.002;5.956;2022-12-16T02:47:45;1.10;72.20
39045;DHT22;52192;52.002;5.956;2022-12-16T02:52:45;1.20;72.30
39045;DHT22;52192;52.002;5.956;2022-12-16T02:55:11;1.20;72.30
39045;DHT22;52192;52.002;5.956;2022-12-16T03:00:20;1.20;72.30
39045;DHT22;52192;52.002;5.956;2022-12-16T03:05:33;1.20;72.40
39045;DHT22;52192;52.002;5.956;2022-12-16T03:08:04;1.30;72.40
39045;DHT22;52192;52.002;5.956;2022-12-16T03:10:35;1.20;72.40
39045;DHT22;52192;52.002;5.956;2022-12-16T03:13:02;1.20;72.40
39045;DHT22;52192;52.002;5.956;2022-12-16T03:15:32;1.20;72.50
39045;DHT22;52192;52.002;5.956;2022-12-16T03:18:01;1.10;72.60
39045;DHT22;52192;52.002;5.956;2022-12-16T03:20:34;1.20;72.70
39045;DHT22;52192;52.002;5.956;2022-12-16T03:23:06;1.20;72.60
39045;DHT22;52192;52.002;5.956;2022-12-16T03:25:33;1.20;72.60
39045;DHT22;52192;52.002;5.956;2022-12-16T03:30:39;1.20;72.70
39045;DHT22;52192;52.002;5.956;2022-12-16T03:33:23;1.20;72.80
39045;DHT22;52192;52.002;5.956;2022-12-16T03:35:57;1.30;72.80
39045;DHT22;52192;52.002;5.956;2022-12-16T03:38:23;1.30;72.90
39045;DHT22;52192;52.002;5.956;2022-12-16T03:40:51;1.20;72.80
39045;DHT22;52192;52.002;5.956;2022-12-16T03:43:17;1.20;72.90
39045;DHT22;52192;52.002;5.956;2022-12-16T03:45:44;1.20;72.90
39045;DHT22;52192;52.002;5.956;2022-12-16T03:48:12;1.20;72.90
39045;DHT22;52192;52.002;5.956;2022-12-16T03:50:39;1.20;73.00
39045;DHT22;52192;52.002;5.956;2022-12-16T03:53:05;1.30;73.00
39045;DHT22;52192;52.002;5.956;2022-12-16T03:55:32;1.30;73.00
39045;DHT22;52192;52.002;5.956;2022-12-16T03:57:58;1.30;72.90
39045;DHT22;52192;52.002;5.956;2022-12-16T04:00:24;1.30;72.90
39045;DHT22;52192;52.002;5.956;2022-12-16T04:02:50;1.30;72.90
39045;DHT22;52192;52.002;5.956;2022-12-16T04:05:16;1.30;73.00
39045;DHT22;52192;52.002;5.956;2022-12-16T04:07:42;1.30;72.90
39045;DHT22;52192;52.002;5.956;2022-12-16T04:10:08;1.30;73.00
39045;DHT22;52192;52.002;5.956;2022-12-16T04:12:34;1.30;73.10
39045;DHT22;52192;52.002;5.956;2022-12-16T04:15:18;1.30;73.20
39045;DHT22;52192;52.002;5.956;2022-12-16T04:18:02;1.30;73.30
39045;DHT22;52192;52.002;5.956;2022-12-16T04:20:53;1.30;73.20
39045;DHT22;52192;52.002;5.956;2022-12-16T04:23:49;1.40;73.30
39045;DHT22;52192;52.002;5.956;2022-12-16T04:26:34;1.40;73.30
39045;DHT22;52192;52.002;5.956;2022-12-16T04:29:20;1.40;73.40
39045;DHT22;52192;52.002;5.956;2022-12-16T04:31:45;1.40;73.50
39045;DHT22;52192;52.002;5.956;2022-12-16T04:34:11;1.40;73.50
39045;DHT22;52192;52.002;5.956;2022-12-16T04:37:02;1.40;73.50
39045;DHT22;52192;52.002;5.956;2022-12-16T04:39:47;1.40;73.40
39045;DHT22;52192;52.002;5.956;2022-12-16T04:42:32;1.30;73.50
39045;DHT22;52192;52.002;5.956;2022-12-16T04:45:16;1.40;73.70
39045;DHT22;52192;52.002;5.956;2022-12-16T04:48:01;1.30;73.70
39045;DHT22;52192;52.002;5.956;2022-12-16T04:50:45;1.40;73.80
39045;DHT22;52192;52.002;5.956;2022-12-16T04:53:50;1.40;73.80
39045;DHT22;52192;52.002;5.956;2022-12-16T04:56:34;1.30;74.00
39045;DHT22;52192;52.002;5.956;2022-12-16T04:59:18;1.40;74.20
39045;DHT22;52192;52.002;5.956;2022-12-16T05:02:02;1.40;74.20
39045;DHT22;52192;52.002;5.956;2022-12-16T05:04:46;1.40;74.20
39045;DHT22;52192;52.002;5.956;2022-12-16T05:07:30;1.40;74.30
39045;DHT22;52192;52.002;5.956;2022-12-16T05:10:14;1.50;74.40
39045;DHT22;52192;52.002;5.956;2022-12-16T05:13:15;1.50;74.40
39045;DHT22;52192;52.002;5.956;2022-12-16T05:16:00;1.50;74.40
39045;DHT22;52192;52.002;5.956;2022-12-16T05:18:44;1.50;74.50
39045;DHT22;52192;52.002;5.956;2022-12-16T05:21:28;1.50;74.50
39045;DHT22;52192;52.002;5.956;2022-12-16T05:24:12;1.60;74.50
39045;DHT22;52192;52.002;5.956;2022-12-16T05:26:56;1.60;74.50
39045;DHT22;52192;52.002;5.956;2022-12-16T05:29:40;1.60;74.50
39045;DHT22;52192;52.002;5.956;2022-12-16T05:32:24;1.60;74.60
39045;DHT22;52192;52.002;5.956;2022-12-16T05:35:08;1.60;74.70
39045;DHT22;52192;52.002;5.956;2022-12-16T05:37:52;1.60;74.70
39045;DHT22;52192;52.002;5.956;2022-12-16T05:40:36;1.60;74.70
39045;DHT22;52192;52.002;5.956;2022-12-16T05:43:20;1.60;74.80
39045;DHT22;52192;52.002;5.956;2022-12-16T05:46:04;1.60;74.80
39045;DHT22;52192;52.002;5.956;2022-12-16T05:48:50;1.60;74.90
39045;DHT22;52192;52.002;5.956;2022-12-16T05:51:34;1.60;74.90
39045;DHT22;52192;52.002;5.956;2022-12-16T05:54:18;1.60;74.90
39045;DHT22;52192;52.002;5.956;2022-12-16T05:57:03;1.60;74.90
39045;DHT22;52192;52.002;5.956;2022-12-16T05:59:46;1.60;75.00
39045;DHT22;52192;52.002;5.956;2022-12-16T06:02:31;1.50;75.10
39045;DHT22;52192;52.002;5.956;2022-12-16T06:05:15;1.60;75.20
39045;DHT22;52192;52.002;5.956;2022-12-16T06:07:58;1.50;75.10
39045;DHT22;52192;52.002;5.956;2022-12-16T06:10:42;1.50;75.20
39045;DHT22;52192;52.002;5.956;2022-12-16T06:13:31;1.50;75.20
39045;DHT22;52192;52.002;5.956;2022-12-16T06:16:15;1.50;75.30
39045;DHT22;52192;52.002;5.956;2022-12-16T06:18:59;1.40;75.20
39045;DHT22;52192;52.002;5.956;2022-12-16T06:21:43;1.40;75.40
39045;DHT22;52192;52.002;5.956;2022-12-16T06:24:28;1.30;75.50
39045;DHT22;52192;52.002;5.956;2022-12-16T06:27:12;1.20;75.60
39045;DHT22;52192;52.002;5.956;2022-12-16T06:29:56;1.20;75.70
39045;DHT22;52192;52.002;5.956;2022-12-16T06:32:41;1.10;75.70
39045;DHT22;52192;52.002;5.956;2022-12-16T06:35:26;1.00;75.80
39045;DHT22;52192;52.002;5.956;2022-12-16T06:38:10;1.00;75.90
39045;DHT22;52192;52.002;5.956;2022-12-16T06:40:54;0.90;75.90
39045;DHT22;52192;52.002;5.956;2022-12-16T06:43:38;0.90;76.00
39045;DHT22;52192;52.002;5.956;2022-12-16T06:46:22;0.80;76.00
39045;DHT22;52192;52.002;5.956;2022-12-16T06:49:06;0.70;76.10
39045;DHT22;52192;52.002;5.956;2022-12-16T06:51:50;0.70;76.10
39045;DHT22;52192;52.002;5.956;2022-12-16T06:54:34;0.60;76.10
39045;DHT22;52192;52.002;5.956;2022-12-16T06:57:18;0.60;76.20
39045;DHT22;52192;52.002;5.956;2022-12-16T07:00:03;0.60;76.20
39045;DHT22;52192;52.002;5.956;2022-12-16T07:02:52;0.50;76.10
39045;DHT22;52192;52.002;5.956;2022-12-16T07:05:36;0.50;76.20
39045;DHT22;52192;52.002;5.956;2022-12-16T07:08:20;0.40;76.20
39045;DHT22;52192;52.002;5.956;2022-12-16T07:11:04;0.40;76.30
39045;DHT22;52192;52.002;5.956;2022-12-16T07:13:48;0.30;76.30
39045;DHT22;52192;52.002;5.956;2022-12-16T07:16:52;0.30;76.30
39045;DHT22;52192;52.002;5.956;2022-12-16T07:19:36;0.20;76.30
39045;DHT22;52192;52.002;5.956;2022-12-16T07:22:20;0.20;76.30
39045;DHT22;52192;52.002;5.956;2022-12-16T07:25:05;0.20;76.30
39045;DHT22;52192;52.002;5.956;2022-12-16T07:27:49;0.10;76.30
39045;DHT22;52192;52.002;5.956;2022-12-16T07:30:33;0.20;76.40
39045;DHT22;52192;52.002;5.956;2022-12-16T07:33:17;0.10;76.30
39045;DHT22;52192;52.002;5.956;2022-12-16T07:36:01;0.20;76.30
39045;DHT22;52192;52.002;5.956;2022-12-16T07:38:46;0.20;76.30
39045;DHT22;52192;52.002;5.956;2022-12-16T07:41:30;0.20;76.30
39045;DHT22;52192;52.002;5.956;2022-12-16T07:44:14;0.20;76.20
39045;DHT22;52192;52.002;5.956;2022-12-16T07:46:58;0.20;76.10
39045;DHT22;52192;52.002;5.956;2022-12-16T07:49:42;0.20;76.20
39045;DHT22;52192;52.002;5.956;2022-12-16T07:52:26;0.20;76.20
39045;DHT22;52192;52.002;5.956;2022-12-16T07:55:10;0.20;76.20
39045;DHT22;52192;52.002;5.956;2022-12-16T07:57:54;0.20;76.30
39045;DHT22;52192;52.002;5.956;2022-12-16T08:00:38;0.30;76.40
39045;DHT22;52192;52.002;5.956;2022-12-16T08:03:22;0.30;76.20
39045;DHT22;52192;52.002;5.956;2022-12-16T08:06:07;0.40;76.20
39045;DHT22;52192;52.002;5.956;2022-12-16T08:08:51;0.40;76.00
39045;DHT22;52192;52.002;5.956;2022-12-16T08:11:35;0.50;76.10
39045;DHT22;52192;52.002;5.956;2022-12-16T08:14:19;0.50;76.00
39045;DHT22;52192;52.002;5.956;2022-12-16T08:17:03;0.60;76.00
39045;DHT22;52192;52.002;5.956;2022-12-16T08:19:47;0.80;75.90
39045;DHT22;52192;52.002;5.956;2022-12-16T08:22:31;0.90;75.60
39045;DHT22;52192;52.002;5.956;2022-12-16T08:25:15;0.90;75.40
39045;DHT22;52192;52.002;5.956;2022-12-16T08:27:59;1.00;75.40
39045;DHT22;52192;52.002;5.956;2022-12-16T08:30:49;1.00;75.40
39045;DHT22;52192;52.002;5.956;2022-12-16T08:33:33;1.00;75.30
39045;DHT22;52192;52.002;5.956;2022-12-16T08:36:17;1.10;75.40
39045;DHT22;52192;52.002;5.956;2022-12-16T08:39:01;1.00;75.30
39045;DHT22;52192;52.002;5.956;2022-12-16T08:41:45;1.10;76.00
39045;DHT22;52192;52.002;5.956;2022-12-16T08:44:30;1.10;75.40
39045;DHT22;52192;52.002;5.956;2022-12-16T08:47:14;1.10;75.40
39045;DHT22;52192;52.002;5.956;2022-12-16T08:49:58;1.10;75.40
39045;DHT22;52192;52.002;5.956;2022-12-16T08:52:42;1.10;75.40
39045;DHT22;52192;52.002;5.956;2022-12-16T08:55:26;1.10;75.40
39045;DHT22;52192;52.002;5.956;2022-12-16T08:58:10;1.10;75.30
39045;DHT22;52192;52.002;5.956;2022-12-16T09:00:54;1.20;75.40
39045;DHT22;52192;52.002;5.956;2022-12-16T09:03:38;1.10;75.40
39045;DHT22;52192;52.002;5.956;2022-12-16T09:06:22;1.10;75.50
39045;DHT22;52192;52.002;5.956;2022-12-16T09:09:07;1.10;75.60
39045;DHT22;52192;52.002;5.956;2022-12-16T09:11:52;1.20;75.60
39045;DHT22;52192;52.002;5.956;2022-12-16T09:14:36;1.20;75.50
39045;DHT22;52192;52.002;5.956;2022-12-16T09:17:20;1.20;75.40
39045;DHT22;52192;52.002;5.956;2022-12-16T09:20:04;1.30;75.40
39045;DHT22;52192;52.002;5.956;2022-12-16T09:22:49;1.30;76.00
39045;DHT22;52192;52.002;5.956;2022-12-16T09:25:32;1.40;75.40
39045;DHT22;52192;52.002;5.956;2022-12-16T09:28:17;1.50;75.30
39045;DHT22;52192;52.002;5.956;2022-12-16T09:31:01;1.50;75.20
39045;DHT22;52192;52.002;5.956;2022-12-16T09:33:45;1.60;75.10
39045;DHT22;52192;52.002;5.956;2022-12-16T09:36:29;1.70;75.00
39045;DHT22;52192;52.002;5.956;2022-12-16T09:39:13;1.80;75.00
39045;DHT22;52192;52.002;5.956;2022-12-16T09:42:29;1.80;74.80
39045;DHT22;52192;52.002;5.956;2022-12-16T09:45:31;1.90;74.60
39045;DHT22;52192;52.002;5.956;2022-12-16T09:48:22;2.00;74.70
39045;DHT22;52192;52.002;5.956;2022-12-16T09:51:08;2.10;74.70
39045;DHT22;52192;52.002;5.956;2022-12-16T09:53:53;2.10;74.60
39045;DHT22;52192;52.002;5.956;2022-12-16T09:56:38;2.20;74.60
39045;DHT22;52192;52.002;5.956;2022-12-16T09:59:33;2.40;74.60
39045;DHT22;52192;52.002;5.956;2022-12-16T10:02:19;2.60;74.20
39045;DHT22;52192;52.002;5.956;2022-12-16T10:05:12;2.60;74.00
39045;DHT22;52192;52.002;5.956;2022-12-16T10:08:13;2.70;74.00
39045;DHT22;52192;52.002;5.956;2022-12-16T10:14:25;2.80;74.00
39045;DHT22;52192;52.002;5.956;2022-12-16T10:17:24;2.70;74.10
39045;DHT22;52192;52.002;5.956;2022-12-16T10:23:04;2.60;74.30
39045;DHT22;52192;52.002;5.956;2022-12-16T10:26:03;2.60;74.50
39045;DHT22;52192;52.002;5.956;2022-12-16T10:29:19;2.60;74.60
39045;DHT22;52192;52.002;5.956;2022-12-16T10:32:23;2.70;74.60
39045;DHT22;52192;52.002;5.956;2022-12-16T10:38:05;2.70;74.60
39045;DHT22;52192;52.002;5.956;2022-12-16T10:40:49;2.70;74.70
39045;DHT22;52192;52.002;5.956;2022-12-16T10:43:38;2.80;74.70
39045;DHT22;52192;52.002;5.956;2022-12-16T10:46:28;2.80;74.60
39045;DHT22;52192;52.002;5.956;2022-12-16T10:49:15;2.80;74.60
39045;DHT22;52192;52.002;5.956;2022-12-16T10:51:59;2.90;74.60
39045;DHT22;52192;52.002;5.956;2022-12-16T10:55:05;2.90;74.50
39045;DHT22;52192;52.002;5.956;2022-12-16T10:58:01;2.90;74.50
39045;DHT22;52192;52.002;5.956;2022-12-16T11:00:50;2.90;74.60
39045;DHT22;52192;52.002;5.956;2022-12-16T11:03:36;2.90;74.60
39045;DHT22;52192;52.002;5.956;2022-12-16T11:06:36;3.00;74.70
39045;DHT22;52192;52.002;5.956;2022-12-16T11:09:32;3.00;74.60
39045;DHT22;52192;52.002;5.956;2022-12-16T11:12:24;3.10;74.60
39045;DHT22;52192;52.002;5.956;2022-12-16T11:15:29;3.10;74.50
39045;DHT22;52192;52.002;5.956;2022-12-16T11:18:18;3.20;74.50
39045;DHT22;52192;52.002;5.956;2022-12-16T11:21:15;3.20;74.40
39045;DHT22;52192;52.002;5.956;2022-12-16T11:24:12;3.30;74.40
39045;DHT22;52192;52.002;5.956;2022-12-16T11:27:02;3.40;74.40
39045;DHT22;52192;52.002;5.956;2022-12-16T11:29:57;3.40;74.50
39045;DHT22;52192;52.002;5.956;2022-12-16T11:32:54;3.40;74.50
39045;DHT22;52192;52.002;5.956;2022-12-16T11:35:42;3.50;74.50
39045;DHT22;52192;52.002;5.956;2022-12-16T11:41:25;3.50;74.60
39045;DHT22;52192;52.002;5.956;2022-12-16T11:44:18;3.50;74.60
39045;DHT22;52192;52.002;5.956;2022-12-16T11:50:12;3.50;74.80
39045;DHT22;52192;52.002;5.956;2022-12-16T11:52:59;3.50;74.80
39045;DHT22;52192;52.002;5.956;2022-12-16T11:55:47;3.60;74.80
39045;DHT22;52192;52.002;5.956;2022-12-16T12:01:45;3.70;74.80
39045;DHT22;52192;52.002;5.956;2022-12-16T12:04:49;3.70;74.80
39045;DHT22;52192;52.002;5.956;2022-12-16T12:16:37;3.70;75.50
39045;DHT22;52192;52.002;5.956;2022-12-16T12:22:38;3.80;75.40
39045;DHT22;52192;52.002;5.956;2022-12-16T12:25:38;3.80;75.30
39045;DHT22;52192;52.002;5.956;2022-12-16T12:28:31;3.80;75.40
39045;DHT22;52192;52.002;5.956;2022-12-16T12:43:35;3.60;75.90
39045;DHT22;52192;52.002;5.956;2022-12-16T12:46:27;3.70;75.90
39045;DHT22;52192;52.002;5.956;2022-12-16T12:55:58;3.70;75.80
39045;DHT22;52192;52.002;5.956;2022-12-16T12:58:48;3.70;75.80
39045;DHT22;52192;52.002;5.956;2022-12-16T13:01:34;3.60;75.80
39045;DHT22;52192;52.002;5.956;2022-12-16T13:04:21;3.70;75.80
39045;DHT22;52192;52.002;5.956;2022-12-16T13:07:06;3.70;75.80
39045;DHT22;52192;52.002;5.956;2022-12-16T13:10:31;3.70;75.80
39045;DHT22;52192;52.002;5.956;2022-12-16T13:22:35;3.60;75.90
39045;DHT22;52192;52.002;5.956;2022-12-16T13:25:54;3.70;75.90
39045;DHT22;52192;52.002;5.956;2022-12-16T13:29:15;3.70;75.80
39045;DHT22;52192;52.002;5.956;2022-12-16T13:32:10;3.60;75.90
39045;DHT22;52192;52.002;5.956;2022-12-16T13:35:01;3.60;76.00
39045;DHT22;52192;52.002;5.956;2022-12-16T13:41:05;3.70;75.90
39045;DHT22;52192;52.002;5.956;2022-12-16T13:44:08;3.70;75.80
39045;DHT22;52192;52.002;5.956;2022-12-16T13:46:55;3.70;76.00
39045;DHT22;52192;52.002;5.956;2022-12-16T13:49:48;3.70;76.00
39045;DHT22;52192;52.002;5.956;2022-12-16T13:52:54;3.70;76.00
39045;DHT22;52192;52.002;5.956;2022-12-16T13:55:59;3.70;76.00
39045;DHT22;52192;52.002;5.956;2022-12-16T13:58:47;3.60;76.20
39045;DHT22;52192;52.002;5.956;2022-12-16T14:01:52;3.60;76.30
39045;DHT22;52192;52.002;5.956;2022-12-16T14:04:57;3.60;76.20
39045;DHT22;52192;52.002;5.956;2022-12-16T14:07:42;3.60;76.20
39045;DHT22;52192;52.002;5.956;2022-12-16T14:10:39;3.60;76.40
39045;DHT22;52192;52.002;5.956;2022-12-16T14:16:56;3.60;76.50
39045;DHT22;52192;52.002;5.956;2022-12-16T14:25:41;3.60;76.70
39045;DHT22;52192;52.002;5.956;2022-12-16T14:28:33;3.60;76.70
39045;DHT22;52192;52.002;5.956;2022-12-16T14:31:23;3.60;76.70
39045;DHT22;52192;52.002;5.956;2022-12-16T14:34:31;3.60;76.70
39045;DHT22;52192;52.002;5.956;2022-12-16T14:37:20;3.60;76.50
39045;DHT22;52192;52.002;5.956;2022-12-16T14:40:29;3.60;76.70
39045;DHT22;52192;52.002;5.956;2022-12-16T14:43:23;3.60;76.70
39045;DHT22;52192;52.002;5.956;2022-12-16T14:46:31;3.60;76.80
39045;DHT22;52192;52.002;5.956;2022-12-16T14:49:24;3.60;76.70
39045;DHT22;52192;52.002;5.956;2022-12-16T14:52:23;3.60;76.90
39045;DHT22;52192;52.002;5.956;2022-12-16T14:55:18;3.60;76.90
39045;DHT22;52192;52.002;5.956;2022-12-16T15:00:49;3.60;76.90
39045;DHT22;52192;52.002;5.956;2022-12-16T15:03:41;3.60;77.00
39045;DHT22;52192;52.002;5.956;2022-12-16T15:06:29;3.60;77.00
39045;DHT22;52192;52.002;5.956;2022-12-16T15:12:07;3.60;77.00
39045;DHT22;52192;52.002;5.956;2022-12-16T15:14:53;3.60;77.10
39045;DHT22;52192;52.002;5.956;2022-12-16T15:17:43;3.60;77.10
39045;DHT22;52192;52.002;5.956;2022-12-16T15:20:30;3.60;77.30
39045;DHT22;52192;52.002;5.956;2022-12-16T15:23:25;3.60;77.30
39045;DHT22;52192;52.002;5.956;2022-12-16T15:26:19;3.60;77.30
39045;DHT22;52192;52.002;5.956;2022-12-16T15:29:22;3.60;77.30
39045;DHT22;52192;52.002;5.956;2022-12-16T15:41:04;3.50;77.50
39045;DHT22;52192;52.002;5.956;2022-12-16T15:43:49;3.50;77.60
39045;DHT22;52192;52.002;5.956;2022-12-16T15:46:35;3.60;77.60
39045;DHT22;52192;52.002;5.956;2022-12-16T15:49:30;3.50;77.60
39045;DHT22;52192;52.002;5.956;2022-12-16T15:52:34;3.60;77.70
39045;DHT22;52192;52.002;5.956;2022-12-16T15:55:32;3.60;77.70
39045;DHT22;52192;52.002;5.956;2022-12-16T15:58:23;3.60;77.70
39045;DHT22;52192;52.002;5.956;2022-12-16T16:01:09;3.50;77.70
39045;DHT22;52192;52.002;5.956;2022-12-16T16:03:55;3.50;77.80
39045;DHT22;52192;52.002;5.956;2022-12-16T16:06:50;3.50;77.80
39045;DHT22;52192;52.002;5.956;2022-12-16T16:09:37;3.50;77.80
39045;DHT22;52192;52.002;5.956;2022-12-16T16:12:22;3.50;78.00
39045;DHT22;52192;52.002;5.956;2022-12-16T16:15:10;3.50;78.00
39045;DHT22;52192;52.002;5.956;2022-12-16T16:18:02;3.50;78.70
39045;DHT22;52192;52.002;5.956;2022-12-16T16:20:47;3.50;78.10
39045;DHT22;52192;52.002;5.956;2022-12-16T16:23:31;3.50;78.20
39045;DHT22;52192;52.002;5.956;2022-12-16T16:26:18;3.50;78.30
39045;DHT22;52192;52.002;5.956;2022-12-16T16:29:02;3.50;78.40
39045;DHT22;52192;52.002;5.956;2022-12-16T16:31:47;3.50;78.40
39045;DHT22;52192;52.002;5.956;2022-12-16T16:34:31;3.50;78.40
39045;DHT22;52192;52.002;5.956;2022-12-16T16:37:17;3.50;78.40
39045;DHT22;52192;52.002;5.956;2022-12-16T16:40:20;3.50;78.50
39045;DHT22;52192;52.002;5.956;2022-12-16T16:43:07;3.50;78.40
39045;DHT22;52192;52.002;5.956;2022-12-16T16:45:53;3.50;78.50
39045;DHT22;52192;52.002;5.956;2022-12-16T16:48:38;3.50;78.60
39045;DHT22;52192;52.002;5.956;2022-12-16T16:51:22;3.50;78.70
39045;DHT22;52192;52.002;5.956;2022-12-16T16:54:06;3.50;78.70
39045;DHT22;52192;52.002;5.956;2022-12-16T16:56:50;3.50;78.60
39045;DHT22;52192;52.002;5.956;2022-12-16T16:59:35;3.50;78.60
39045;DHT22;52192;52.002;5.956;2022-12-16T17:02:30;3.50;78.70
39045;DHT22;52192;52.002;5.956;2022-12-16T17:05:14;3.50;78.80
39045;DHT22;52192;52.002;5.956;2022-12-16T17:07:59;3.50;78.90
39045;DHT22;52192;52.002;5.956;2022-12-16T17:10:43;3.50;78.90
39045;DHT22;52192;52.002;5.956;2022-12-16T17:13:27;3.50;78.90
39045;DHT22;52192;52.002;5.956;2022-12-16T17:16:13;3.50;79.00
39045;DHT22;52192;52.002;5.956;2022-12-16T17:18:57;3.50;79.00
39045;DHT22;52192;52.002;5.956;2022-12-16T17:21:42;3.50;78.90
39045;DHT22;52192;52.002;5.956;2022-12-16T17:24:26;3.50;78.90
39045;DHT22;52192;52.002;5.956;2022-12-16T17:27:19;3.50;79.00
39045;DHT22;52192;52.002;5.956;2022-12-16T17:30:25;3.50;79.10
39045;DHT22;52192;52.002;5.956;2022-12-16T17:33:09;3.50;79.10
39045;DHT22;52192;52.002;5.956;2022-12-16T17:35:53;3.50;79.10
39045;DHT22;52192;52.002;5.956;2022-12-16T17:38:42;3.50;79.10
39045;DHT22;52192;52.002;5.956;2022-12-16T17:41:27;3.50;79.10
39045;DHT22;52192;52.002;5.956;2022-12-16T17:44:12;3.50;79.10
39045;DHT22;52192;52.002;5.956;2022-12-16T17:46:57;3.50;79.10
39045;DHT22;52192;52.002;5.956;2022-12-16T17:49:42;3.50;79.20
39045;DHT22;52192;52.002;5.956;2022-12-16T17:52:26;3.50;79.20
39045;DHT22;52192;52.002;5.956;2022-12-16T17:55:11;3.50;79.20
39045;DHT22;52192;52.002;5.956;2022-12-16T17:57:55;3.50;79.20
39045;DHT22;52192;52.002;5.956;2022-12-16T18:00:39;3.50;79.20
39045;DHT22;52192;52.002;5.956;2022-12-16T18:03:24;3.50;79.30
39045;DHT22;52192;52.002;5.956;2022-12-16T18:06:08;3.60;79.30
39045;DHT22;52192;52.002;5.956;2022-12-16T18:08:52;3.60;79.30
39045;DHT22;52192;52.002;5.956;2022-12-16T18:11:36;3.60;79.40
39045;DHT22;52192;52.002;5.956;2022-12-16T18:14:20;3.60;79.40
39045;DHT22;52192;52.002;5.956;2022-12-16T18:17:05;3.50;79.40
39045;DHT22;52192;52.002;5.956;2022-12-16T18:19:49;3.50;79.40
39045;DHT22;52192;52.002;5.956;2022-12-16T18:22:33;3.50;79.40
39045;DHT22;52192;52.002;5.956;2022-12-16T18:25:17;3.50;79.50
39045;DHT22;52192;52.002;5.956;2022-12-16T18:28:01;3.50;79.50
39045;DHT22;52192;52.002;5.956;2022-12-16T18:30:46;3.50;79.50
39045;DHT22;52192;52.002;5.956;2022-12-16T18:33:30;3.50;79.60
39045;DHT22;52192;52.002;5.956;2022-12-16T18:36:14;3.50;79.50
39045;DHT22;52192;52.002;5.956;2022-12-16T18:38:58;3.50;79.50
39045;DHT22;52192;52.002;5.956;2022-12-16T18:41:44;3.50;79.60
39045;DHT22;52192;52.002;5.956;2022-12-16T18:44:37;3.50;79.60
39045;DHT22;52192;52.002;5.956;2022-12-16T18:47:21;3.50;79.60
39045;DHT22;52192;52.002;5.956;2022-12-16T18:50:05;3.50;79.60
39045;DHT22;52192;52.002;5.956;2022-12-16T18:52:49;3.60;79.60
39045;DHT22;52192;52.002;5.956;2022-12-16T18:55:34;3.60;79.70
39045;DHT22;52192;52.002;5.956;2022-12-16T18:58:18;3.60;79.70
39045;DHT22;52192;52.002;5.956;2022-12-16T19:01:07;3.50;79.60
39045;DHT22;52192;52.002;5.956;2022-12-16T19:03:52;3.60;79.70
39045;DHT22;52192;52.002;5.956;2022-12-16T19:06:36;3.50;79.70
39045;DHT22;52192;52.002;5.956;2022-12-16T19:09:22;3.50;79.70
39045;DHT22;52192;52.002;5.956;2022-12-16T19:12:07;3.50;79.70
39045;DHT22;52192;52.002;5.956;2022-12-16T19:14:51;3.50;79.70
39045;DHT22;52192;52.002;5.956;2022-12-16T19:17:35;3.50;79.70
39045;DHT22;52192;52.002;5.956;2022-12-16T19:20:19;3.60;79.80
39045;DHT22;52192;52.002;5.956;2022-12-16T19:23:03;3.60;79.80
39045;DHT22;52192;52.002;5.956;2022-12-16T19:25:48;3.50;79.80